sensor_id;sensor_type;location;lat;lon;timestamp;P1;durP1;ratioP1;P2;durP2;ratioP2
43042;SDS011;28667;50.758;6.096;2022-12-01T00:00:51;36.15;;;12.90;;
43042;SDS011;28667;50.758;6.096;2022-12-01T00:03:18;41.55;;;13.10;;
43042;SDS011;28667;50.758;6.096;2022-12-01T00:05:44;36.78;;;12.95;;
43042;SDS011;28667;50.758;6.096;2022-12-01T00:08:10;37.53;;;11.57;;
43042;SDS011;28667;50.758;6.096;2022-12-01T00:10:36;36.38;;;11.93;;
43042;SDS011;28667;50.758;6.096;2022-12-01T00:13:02;34.95;;;12.23;;
43042;SDS011;28667;50.758;6.096;2022-12-01T00:15:30;36.92;;;11.68;;
43042;SDS011;28667;50.758;6.096;2022-12-01T00:17:58;36.78;;;12.05;;
43042;SDS011;28667;50.758;6.096;2022-12-01T00:20:25;36.30;;;13.93;;
43042;SDS011;28667;50.758;6.096;2022-12-01T00:22:50;26.77;;;10.18;;
43042;SDS011;28667;50.758;6.096;2022-12-01T00:25:17;31.73;;;11.75;;
43042;SDS011;28667;50.758;6.096;2022-12-01T00:27:46;36.80;;;12.00;;
43042;SDS011;28667;50.758;6.096;2022-12-01T00:30:13;42.63;;;12.95;;
43042;SDS011;28667;50.758;6.096;2022-12-01T00:32:39;38.67;;;11.77;;
43042;SDS011;28667;50.758;6.096;2022-12-01T00:35:05;36.55;;;12.10;;
43042;SDS011;28667;50.758;6.096;2022-12-01T00:37:31;31.38;;;11.27;;
43042;SDS011;28667;50.758;6.096;2022-12-01T00:39:58;35.20;;;11.65;;
43042;SDS011;28667;50.758;6.096;2022-12-01T00:42:24;36.05;;;11.05;;
43042;SDS011;28667;50.758;6.096;2022-12-01T00:44:50;40.85;;;12.60;;
43042;SDS011;28667;50.758;6.096;2022-12-01T00:47:16;41.78;;;12.68;;
43042;SDS011;28667;50.758;6.096;2022-12-01T00:49:42;43.50;;;12.38;;
43042;SDS011;28667;50.758;6.096;2022-12-01T00:52:11;36.17;;;12.70;;
43042;SDS011;28667;50.758;6.096;2022-12-01T00:54:37;38.58;;;12.63;;
43042;SDS011;28667;50.758;6.096;2022-12-01T00:57:03;27.20;;;11.40;;
43042;SDS011;28667;50.758;6.096;2022-12-01T00:59:29;37.35;;;13.15;;
43042;SDS011;28667;50.758;6.096;2022-12-01T01:01:55;36.60;;;13.38;;
43042;SDS011;28667;50.758;6.096;2022-12-01T01:04:20;37.75;;;12.40;;
43042;SDS011;28667;50.758;6.096;2022-12-01T01:06:46;48.40;;;14.07;;
43042;SDS011;28667;50.758;6.096;2022-12-01T01:09:12;29.77;;;11.82;;
43042;SDS011;28667;50.758;6.096;2022-12-01T01:11:39;31.70;;;11.52;;
43042;SDS011;28667;50.758;6.096;2022-12-01T01:14:05;29.55;;;9.75;;
43042;SDS011;28667;50.758;6.096;2022-12-01T01:16:31;30.88;;;11.18;;
43042;SDS011;28667;50.758;6.096;2022-12-01T01:18:59;38.30;;;12.50;;
43042;SDS011;28667;50.758;6.096;2022-12-01T01:21:25;36.72;;;12.48;;
43042;SDS011;28667;50.758;6.096;2022-12-01T01:23:52;32.88;;;12.48;;
43042;SDS011;28667;50.758;6.096;2022-12-01T01:26:28;29.92;;;11.18;;
43042;SDS011;28667;50.758;6.096;2022-12-01T01:28:59;34.50;;;11.98;;
43042;SDS011;28667;50.758;6.096;2022-12-01T01:31:27;35.90;;;12.57;;
43042;SDS011;28667;50.758;6.096;2022-12-01T01:33:54;28.77;;;10.93;;
43042;SDS011;28667;50.758;6.096;2022-12-01T01:36:22;32.03;;;11.77;;
43042;SDS011;28667;50.758;6.096;2022-12-01T01:38:48;28.38;;;10.70;;
43042;SDS011;28667;50.758;6.096;2022-12-01T01:41:20;46.17;;;12.73;;
43042;SDS011;28667;50.758;6.096;2022-12-01T01:43:59;33.72;;;12.13;;
43042;SDS011;28667;50.758;6.096;2022-12-01T01:46:35;35.47;;;11.57;;
43042;SDS011;28667;50.758;6.096;2022-12-01T01:49:05;35.60;;;11.50;;
43042;SDS011;28667;50.758;6.096;2022-12-01T01:54:05;31.00;;;11.68;;
43042;SDS011;28667;50.758;6.096;2022-12-01T01:56:39;35.15;;;11.55;;
43042;SDS011;28667;50.758;6.096;2022-12-01T01:59:07;35.00;;;12.13;;
43042;SDS011;28667;50.758;6.096;2022-12-01T02:01:35;32.55;;;11.70;;
43042;SDS011;28667;50.758;6.096;2022-12-01T02:04:01;29.80;;;10.60;;
43042;SDS011;28667;50.758;6.096;2022-12-01T02:06:27;32.30;;;11.55;;
43042;SDS011;28667;50.758;6.096;2022-12-01T02:08:53;33.63;;;10.90;;
43042;SDS011;28667;50.758;6.096;2022-12-01T02:16:41;31.33;;;10.02;;
43042;SDS011;28667;50.758;6.096;2022-12-01T02:25:20;31.30;;;11.02;;
43042;SDS011;28667;50.758;6.096;2022-12-01T02:35:51;35.63;;;12.88;;
43042;SDS011;28667;50.758;6.096;2022-12-01T02:41:14;40.35;;;14.35;;
43042;SDS011;28667;50.758;6.096;2022-12-01T02:46:50;42.70;;;14.15;;
43042;SDS011;28667;50.758;6.096;2022-12-01T02:49:50;39.42;;;15.43;;
43042;SDS011;28667;50.758;6.096;2022-12-01T02:52:18;45.83;;;14.73;;
43042;SDS011;28667;50.758;6.096;2022-12-01T02:54:47;44.08;;;14.55;;
43042;SDS011;28667;50.758;6.096;2022-12-01T02:57:14;40.67;;;13.60;;
43042;SDS011;28667;50.758;6.096;2022-12-01T02:59:41;38.97;;;13.25;;
43042;SDS011;28667;50.758;6.096;2022-12-01T03:05:05;42.85;;;13.20;;
43042;SDS011;28667;50.758;6.096;2022-12-01T03:18:45;42.08;;;12.93;;
43042;SDS011;28667;50.758;6.096;2022-12-01T03:21:27;33.78;;;10.93;;
43042;SDS011;28667;50.758;6.096;2022-12-01T03:24:05;40.10;;;12.45;;
43042;SDS011;28667;50.758;6.096;2022-12-01T03:26:35;43.47;;;14.90;;
43042;SDS011;28667;50.758;6.096;2022-12-01T03:29:05;40.00;;;13.48;;
43042;SDS011;28667;50.758;6.096;2022-12-01T03:31:36;47.85;;;12.90;;
43042;SDS011;28667;50.758;6.096;2022-12-01T03:34:16;45.47;;;14.15;;
43042;SDS011;28667;50.758;6.096;2022-12-01T03:36:54;42.38;;;14.65;;
43042;SDS011;28667;50.758;6.096;2022-12-01T03:39:26;40.60;;;14.10;;
43042;SDS011;28667;50.758;6.096;2022-12-01T03:41:58;43.05;;;13.90;;
43042;SDS011;28667;50.758;6.096;2022-12-01T03:44:40;35.72;;;13.45;;
43042;SDS011;28667;50.758;6.096;2022-12-01T03:47:14;40.90;;;13.25;;
43042;SDS011;28667;50.758;6.096;2022-12-01T03:49:41;44.13;;;14.77;;
43042;SDS011;28667;50.758;6.096;2022-12-01T03:54:56;41.60;;;13.82;;
43042;SDS011;28667;50.758;6.096;2022-12-01T03:57:35;39.38;;;12.63;;
43042;SDS011;28667;50.758;6.096;2022-12-01T04:00:03;37.30;;;12.50;;
43042;SDS011;28667;50.758;6.096;2022-12-01T04:02:37;42.67;;;14.10;;
43042;SDS011;28667;50.758;6.096;2022-12-01T04:05:06;37.05;;;13.63;;
43042;SDS011;28667;50.758;6.096;2022-12-01T04:07:35;44.10;;;15.30;;
43042;SDS011;28667;50.758;6.096;2022-12-01T04:10:02;44.25;;;14.25;;
43042;SDS011;28667;50.758;6.096;2022-12-01T04:12:29;45.15;;;13.38;;
43042;SDS011;28667;50.758;6.096;2022-12-01T04:14:55;38.25;;;12.80;;
43042;SDS011;28667;50.758;6.096;2022-12-01T04:17:22;40.05;;;12.70;;
43042;SDS011;28667;50.758;6.096;2022-12-01T04:19:48;43.35;;;12.68;;
43042;SDS011;28667;50.758;6.096;2022-12-01T04:22:14;38.35;;;12.68;;
43042;SDS011;28667;50.758;6.096;2022-12-01T04:24:40;38.53;;;13.40;;
43042;SDS011;28667;50.758;6.096;2022-12-01T04:27:06;43.20;;;14.00;;
43042;SDS011;28667;50.758;6.096;2022-12-01T04:29:32;44.22;;;14.02;;
43042;SDS011;28667;50.758;6.096;2022-12-01T04:31:57;37.92;;;12.52;;
43042;SDS011;28667;50.758;6.096;2022-12-01T04:34:23;48.90;;;14.25;;
43042;SDS011;28667;50.758;6.096;2022-12-01T04:36:49;43.67;;;13.68;;
43042;SDS011;28667;50.758;6.096;2022-12-01T04:39:14;41.28;;;14.23;;
43042;SDS011;28667;50.758;6.096;2022-12-01T04:41:40;50.20;;;13.57;;
43042;SDS011;28667;50.758;6.096;2022-12-01T04:44:07;46.10;;;13.98;;
43042;SDS011;28667;50.758;6.096;2022-12-01T04:46:34;46.17;;;14.20;;
43042;SDS011;28667;50.758;6.096;2022-12-01T04:49:00;43.05;;;13.85;;
43042;SDS011;28667;50.758;6.096;2022-12-01T04:51:26;41.17;;;14.27;;
43042;SDS011;28667;50.758;6.096;2022-12-01T04:53:52;48.13;;;14.30;;
43042;SDS011;28667;50.758;6.096;2022-12-01T04:56:17;45.75;;;14.27;;
43042;SDS011;28667;50.758;6.096;2022-12-01T04:58:43;58.90;;;15.73;;
43042;SDS011;28667;50.758;6.096;2022-12-01T05:01:10;48.78;;;15.95;;
43042;SDS011;28667;50.758;6.096;2022-12-01T05:03:41;52.17;;;14.25;;
43042;SDS011;28667;50.758;6.096;2022-12-01T05:06:12;47.45;;;15.63;;
43042;SDS011;28667;50.758;6.096;2022-12-01T05:08:43;50.73;;;15.17;;
43042;SDS011;28667;50.758;6.096;2022-12-01T05:11:09;41.92;;;13.27;;
43042;SDS011;28667;50.758;6.096;2022-12-01T05:13:40;56.78;;;18.23;;
43042;SDS011;28667;50.758;6.096;2022-12-01T05:16:09;37.40;;;12.23;;
43042;SDS011;28667;50.758;6.096;2022-12-01T05:18:46;51.67;;;14.00;;
43042;SDS011;28667;50.758;6.096;2022-12-01T05:21:13;55.50;;;15.55;;
43042;SDS011;28667;50.758;6.096;2022-12-01T05:23:39;41.25;;;14.15;;
43042;SDS011;28667;50.758;6.096;2022-12-01T05:26:06;55.08;;;15.88;;
43042;SDS011;28667;50.758;6.096;2022-12-01T05:28:33;44.83;;;12.77;;
43042;SDS011;28667;50.758;6.096;2022-12-01T05:30:59;38.53;;;12.55;;
43042;SDS011;28667;50.758;6.096;2022-12-01T05:33:25;42.95;;;14.02;;
43042;SDS011;28667;50.758;6.096;2022-12-01T05:35:52;44.13;;;12.63;;
43042;SDS011;28667;50.758;6.096;2022-12-01T05:38:18;43.25;;;13.60;;
43042;SDS011;28667;50.758;6.096;2022-12-01T05:40:48;44.50;;;12.93;;
43042;SDS011;28667;50.758;6.096;2022-12-01T05:43:18;39.83;;;12.90;;
43042;SDS011;28667;50.758;6.096;2022-12-01T05:45:45;44.72;;;12.25;;
43042;SDS011;28667;50.758;6.096;2022-12-01T05:48:11;38.53;;;12.73;;
43042;SDS011;28667;50.758;6.096;2022-12-01T05:50:37;54.55;;;12.95;;
43042;SDS011;28667;50.758;6.096;2022-12-01T05:53:05;42.25;;;12.50;;
43042;SDS011;28667;50.758;6.096;2022-12-01T05:55:31;46.95;;;13.52;;
43042;SDS011;28667;50.758;6.096;2022-12-01T05:57:58;42.65;;;13.55;;
43042;SDS011;28667;50.758;6.096;2022-12-01T06:00:24;46.92;;;14.30;;
43042;SDS011;28667;50.758;6.096;2022-12-01T06:02:50;57.38;;;14.80;;
43042;SDS011;28667;50.758;6.096;2022-12-01T06:05:16;34.65;;;13.20;;
43042;SDS011;28667;50.758;6.096;2022-12-01T06:07:42;49.33;;;15.55;;
43042;SDS011;28667;50.758;6.096;2022-12-01T06:10:08;50.10;;;15.75;;
43042;SDS011;28667;50.758;6.096;2022-12-01T06:12:34;59.30;;;15.20;;
43042;SDS011;28667;50.758;6.096;2022-12-01T06:15:00;45.10;;;14.05;;
43042;SDS011;28667;50.758;6.096;2022-12-01T06:17:26;49.50;;;13.77;;
43042;SDS011;28667;50.758;6.096;2022-12-01T06:19:52;58.03;;;15.50;;
43042;SDS011;28667;50.758;6.096;2022-12-01T06:22:17;59.60;;;15.35;;
43042;SDS011;28667;50.758;6.096;2022-12-01T06:24:43;50.72;;;16.08;;
43042;SDS011;28667;50.758;6.096;2022-12-01T06:27:09;60.78;;;15.43;;
43042;SDS011;28667;50.758;6.096;2022-12-01T06:29:34;59.30;;;15.82;;
43042;SDS011;28667;50.758;6.096;2022-12-01T06:32:00;74.32;;;17.67;;
43042;SDS011;28667;50.758;6.096;2022-12-01T06:34:26;56.13;;;15.40;;
43042;SDS011;28667;50.758;6.096;2022-12-01T06:36:51;59.50;;;16.70;;
43042;SDS011;28667;50.758;6.096;2022-12-01T06:39:17;48.05;;;14.65;;
43042;SDS011;28667;50.758;6.096;2022-12-01T06:41:43;51.75;;;15.73;;
43042;SDS011;28667;50.758;6.096;2022-12-01T06:44:09;61.10;;;16.17;;
43042;SDS011;28667;50.758;6.096;2022-12-01T06:46:35;63.28;;;16.40;;
43042;SDS011;28667;50.758;6.096;2022-12-01T06:49:00;59.92;;;16.10;;
43042;SDS011;28667;50.758;6.096;2022-12-01T06:51:26;66.35;;;16.48;;
43042;SDS011;28667;50.758;6.096;2022-12-01T06:53:56;61.05;;;16.00;;
43042;SDS011;28667;50.758;6.096;2022-12-01T06:56:21;62.72;;;17.40;;
43042;SDS011;28667;50.758;6.096;2022-12-01T06:58:48;63.42;;;17.15;;
43042;SDS011;28667;50.758;6.096;2022-12-01T07:01:14;68.32;;;18.25;;
43042;SDS011;28667;50.758;6.096;2022-12-01T07:03:41;71.75;;;18.55;;
43042;SDS011;28667;50.758;6.096;2022-12-01T07:06:07;70.13;;;18.30;;
43042;SDS011;28667;50.758;6.096;2022-12-01T07:08:33;55.42;;;16.17;;
43042;SDS011;28667;50.758;6.096;2022-12-01T07:11:00;48.20;;;14.82;;
43042;SDS011;28667;50.758;6.096;2022-12-01T07:13:27;45.05;;;17.27;;
43042;SDS011;28667;50.758;6.096;2022-12-01T07:15:53;47.80;;;14.52;;
43042;SDS011;28667;50.758;6.096;2022-12-01T07:18:19;54.28;;;15.45;;
43042;SDS011;28667;50.758;6.096;2022-12-01T07:20:45;46.80;;;13.70;;
43042;SDS011;28667;50.758;6.096;2022-12-01T07:23:10;58.28;;;15.30;;
43042;SDS011;28667;50.758;6.096;2022-12-01T07:25:36;55.33;;;14.93;;
43042;SDS011;28667;50.758;6.096;2022-12-01T07:28:02;52.75;;;14.82;;
43042;SDS011;28667;50.758;6.096;2022-12-01T07:30:28;52.47;;;16.08;;
43042;SDS011;28667;50.758;6.096;2022-12-01T07:32:53;49.28;;;14.75;;
43042;SDS011;28667;50.758;6.096;2022-12-01T07:35:19;43.60;;;13.65;;
43042;SDS011;28667;50.758;6.096;2022-12-01T07:37:45;47.40;;;15.27;;
43042;SDS011;28667;50.758;6.096;2022-12-01T07:40:10;45.15;;;14.55;;
43042;SDS011;28667;50.758;6.096;2022-12-01T07:42:39;56.08;;;15.82;;
43042;SDS011;28667;50.758;6.096;2022-12-01T07:45:06;48.60;;;15.73;;
43042;SDS011;28667;50.758;6.096;2022-12-01T07:47:32;61.05;;;17.58;;
43042;SDS011;28667;50.758;6.096;2022-12-01T07:49:57;46.47;;;14.00;;
43042;SDS011;28667;50.758;6.096;2022-12-01T07:52:23;52.38;;;15.07;;
43042;SDS011;28667;50.758;6.096;2022-12-01T07:54:49;46.80;;;14.43;;
43042;SDS011;28667;50.758;6.096;2022-12-01T07:57:14;50.47;;;16.20;;
43042;SDS011;28667;50.758;6.096;2022-12-01T07:59:42;46.35;;;15.95;;
43042;SDS011;28667;50.758;6.096;2022-12-01T08:02:08;47.85;;;16.52;;
43042;SDS011;28667;50.758;6.096;2022-12-01T08:04:34;54.95;;;17.10;;
43042;SDS011;28667;50.758;6.096;2022-12-01T08:07:00;51.83;;;15.77;;
43042;SDS011;28667;50.758;6.096;2022-12-01T08:09:26;55.95;;;15.93;;
43042;SDS011;28667;50.758;6.096;2022-12-01T08:11:52;66.32;;;15.98;;
43042;SDS011;28667;50.758;6.096;2022-12-01T08:14:17;53.00;;;14.93;;
43042;SDS011;28667;50.758;6.096;2022-12-01T08:16:43;61.97;;;16.13;;
43042;SDS011;28667;50.758;6.096;2022-12-01T08:19:09;51.72;;;15.63;;
43042;SDS011;28667;50.758;6.096;2022-12-01T08:21:35;50.85;;;15.80;;
43042;SDS011;28667;50.758;6.096;2022-12-01T08:24:02;45.28;;;13.95;;
43042;SDS011;28667;50.758;6.096;2022-12-01T08:26:28;52.42;;;14.65;;
43042;SDS011;28667;50.758;6.096;2022-12-01T08:28:55;43.40;;;15.30;;
43042;SDS011;28667;50.758;6.096;2022-12-01T08:31:23;50.45;;;13.98;;
43042;SDS011;28667;50.758;6.096;2022-12-01T08:33:50;45.05;;;13.88;;
43042;SDS011;28667;50.758;6.096;2022-12-01T08:36:17;43.90;;;15.18;;
43042;SDS011;28667;50.758;6.096;2022-12-01T08:38:44;52.30;;;13.40;;
43042;SDS011;28667;50.758;6.096;2022-12-01T08:41:11;36.58;;;13.75;;
43042;SDS011;28667;50.758;6.096;2022-12-01T08:43:37;34.05;;;12.35;;
43042;SDS011;28667;50.758;6.096;2022-12-01T08:46:05;42.97;;;13.80;;
43042;SDS011;28667;50.758;6.096;2022-12-01T08:48:32;44.80;;;16.02;;
43042;SDS011;28667;50.758;6.096;2022-12-01T08:51:12;56.97;;;14.88;;
43042;SDS011;28667;50.758;6.096;2022-12-01T08:53:40;41.25;;;13.85;;
43042;SDS011;28667;50.758;6.096;2022-12-01T08:56:18;40.65;;;12.18;;
43042;SDS011;28667;50.758;6.096;2022-12-01T08:58:46;48.88;;;13.52;;
43042;SDS011;28667;50.758;6.096;2022-12-01T09:01:13;48.05;;;13.88;;
43042;SDS011;28667;50.758;6.096;2022-12-01T09:03:40;42.70;;;15.07;;
43042;SDS011;28667;50.758;6.096;2022-12-01T09:06:14;46.00;;;14.07;;
43042;SDS011;28667;50.758;6.096;2022-12-01T09:08:43;51.33;;;15.38;;
43042;SDS011;28667;50.758;6.096;2022-12-01T09:11:10;44.13;;;14.23;;
43042;SDS011;28667;50.758;6.096;2022-12-01T09:13:40;44.58;;;16.25;;
43042;SDS011;28667;50.758;6.096;2022-12-01T09:16:09;42.53;;;14.75;;
43042;SDS011;28667;50.758;6.096;2022-12-01T09:18:37;48.05;;;13.23;;
43042;SDS011;28667;50.758;6.096;2022-12-01T09:21:14;49.45;;;14.32;;
43042;SDS011;28667;50.758;6.096;2022-12-01T09:23:40;35.40;;;12.40;;
43042;SDS011;28667;50.758;6.096;2022-12-01T09:26:06;35.03;;;11.40;;
43042;SDS011;28667;50.758;6.096;2022-12-01T09:28:32;40.42;;;13.05;;
43042;SDS011;28667;50.758;6.096;2022-12-01T09:31:05;38.53;;;12.45;;
43042;SDS011;28667;50.758;6.096;2022-12-01T09:33:33;48.67;;;13.90;;
43042;SDS011;28667;50.758;6.096;2022-12-01T09:35:59;40.25;;;12.73;;
43042;SDS011;28667;50.758;6.096;2022-12-01T09:38:27;39.45;;;12.63;;
43042;SDS011;28667;50.758;6.096;2022-12-01T09:40:54;40.92;;;12.95;;
43042;SDS011;28667;50.758;6.096;2022-12-01T09:43:24;38.95;;;13.15;;
43042;SDS011;28667;50.758;6.096;2022-12-01T09:45:55;43.05;;;12.55;;
43042;SDS011;28667;50.758;6.096;2022-12-01T09:48:36;41.63;;;13.82;;
43042;SDS011;28667;50.758;6.096;2022-12-01T09:51:13;31.17;;;12.25;;
43042;SDS011;28667;50.758;6.096;2022-12-01T09:53:41;43.95;;;12.27;;
43042;SDS011;28667;50.758;6.096;2022-12-01T09:56:17;37.10;;;13.15;;
43042;SDS011;28667;50.758;6.096;2022-12-01T09:58:58;34.80;;;11.98;;
43042;SDS011;28667;50.758;6.096;2022-12-01T10:01:45;42.45;;;12.13;;
43042;SDS011;28667;50.758;6.096;2022-12-01T10:04:22;34.85;;;12.73;;
43042;SDS011;28667;50.758;6.096;2022-12-01T10:07:00;35.35;;;11.57;;
43042;SDS011;28667;50.758;6.096;2022-12-01T10:12:13;36.95;;;12.77;;
43042;SDS011;28667;50.758;6.096;2022-12-01T10:14:42;40.15;;;11.88;;
43042;SDS011;28667;50.758;6.096;2022-12-01T10:25:37;37.22;;;11.73;;
43042;SDS011;28667;50.758;6.096;2022-12-01T10:28:41;35.55;;;12.65;;
43042;SDS011;28667;50.758;6.096;2022-12-01T10:31:20;33.55;;;11.15;;
43042;SDS011;28667;50.758;6.096;2022-12-01T10:33:56;33.90;;;11.48;;
43042;SDS011;28667;50.758;6.096;2022-12-01T10:36:52;30.50;;;10.57;;
43042;SDS011;28667;50.758;6.096;2022-12-01T10:39:18;31.38;;;11.57;;
43042;SDS011;28667;50.758;6.096;2022-12-01T10:41:55;41.30;;;12.95;;
43042;SDS011;28667;50.758;6.096;2022-12-01T10:44:27;45.42;;;14.75;;
43042;SDS011;28667;50.758;6.096;2022-12-01T10:46:54;37.65;;;11.55;;
43042;SDS011;28667;50.758;6.096;2022-12-01T10:49:22;34.78;;;11.85;;
43042;SDS011;28667;50.758;6.096;2022-12-01T10:52:00;40.83;;;11.57;;
43042;SDS011;28667;50.758;6.096;2022-12-01T10:54:34;44.78;;;12.57;;
43042;SDS011;28667;50.758;6.096;2022-12-01T10:57:04;38.85;;;13.15;;
43042;SDS011;28667;50.758;6.096;2022-12-01T10:59:51;46.97;;;12.95;;
43042;SDS011;28667;50.758;6.096;2022-12-01T11:02:22;41.03;;;12.23;;
43042;SDS011;28667;50.758;6.096;2022-12-01T11:04:51;37.67;;;11.93;;
43042;SDS011;28667;50.758;6.096;2022-12-01T11:07:31;34.80;;;11.98;;
43042;SDS011;28667;50.758;6.096;2022-12-01T11:15:48;35.97;;;11.75;;
43042;SDS011;28667;50.758;6.096;2022-12-01T11:18:23;38.28;;;11.90;;
43042;SDS011;28667;50.758;6.096;2022-12-01T11:23:52;45.13;;;15.05;;
43042;SDS011;28667;50.758;6.096;2022-12-01T11:26:27;46.85;;;13.88;;
43042;SDS011;28667;50.758;6.096;2022-12-01T11:28:59;50.65;;;13.93;;
43042;SDS011;28667;50.758;6.096;2022-12-01T11:34:00;47.53;;;14.38;;
43042;SDS011;28667;50.758;6.096;2022-12-01T11:38:57;46.75;;;14.32;;
43042;SDS011;28667;50.758;6.096;2022-12-01T11:41:35;59.53;;;18.08;;
43042;SDS011;28667;50.758;6.096;2022-12-01T11:44:03;57.05;;;16.40;;
43042;SDS011;28667;50.758;6.096;2022-12-01T11:46:44;54.38;;;15.77;;
43042;SDS011;28667;50.758;6.096;2022-12-01T11:49:17;49.38;;;14.90;;
43042;SDS011;28667;50.758;6.096;2022-12-01T11:51:47;53.40;;;16.13;;
43042;SDS011;28667;50.758;6.096;2022-12-01T11:56:44;54.33;;;16.75;;
43042;SDS011;28667;50.758;6.096;2022-12-01T11:59:15;51.85;;;16.17;;
43042;SDS011;28667;50.758;6.096;2022-12-01T12:18:05;71.05;;;19.25;;
43042;SDS011;28667;50.758;6.096;2022-12-01T12:26:10;68.10;;;17.05;;
43042;SDS011;28667;50.758;6.096;2022-12-01T12:37:19;59.65;;;17.70;;
43042;SDS011;28667;50.758;6.096;2022-12-01T12:42:51;51.65;;;16.15;;
43042;SDS011;28667;50.758;6.096;2022-12-01T12:53:25;55.87;;;17.27;;
43042;SDS011;28667;50.758;6.096;2022-12-01T12:55:57;72.15;;;17.55;;
43042;SDS011;28667;50.758;6.096;2022-12-01T12:58:28;62.25;;;16.85;;
43042;SDS011;28667;50.758;6.096;2022-12-01T13:01:12;69.30;;;18.75;;
43042;SDS011;28667;50.758;6.096;2022-12-01T13:03:48;64.03;;;19.63;;
43042;SDS011;28667;50.758;6.096;2022-12-01T13:06:19;67.13;;;18.67;;
43042;SDS011;28667;50.758;6.096;2022-12-01T13:11:28;65.72;;;17.25;;
43042;SDS011;28667;50.758;6.096;2022-12-01T13:14:25;63.40;;;16.48;;
43042;SDS011;28667;50.758;6.096;2022-12-01T13:16:56;62.85;;;15.75;;
43042;SDS011;28667;50.758;6.096;2022-12-01T13:19:38;54.70;;;16.35;;
43042;SDS011;28667;50.758;6.096;2022-12-01T13:22:06;54.22;;;15.30;;
43042;SDS011;28667;50.758;6.096;2022-12-01T13:24:35;68.43;;;17.80;;
43042;SDS011;28667;50.758;6.096;2022-12-01T13:27:05;63.47;;;17.45;;
43042;SDS011;28667;50.758;6.096;2022-12-01T13:29:35;63.70;;;17.30;;
43042;SDS011;28667;50.758;6.096;2022-12-01T13:32:04;66.07;;;19.17;;
43042;SDS011;28667;50.758;6.096;2022-12-01T13:34:38;60.72;;;16.55;;
43042;SDS011;28667;50.758;6.096;2022-12-01T13:37:07;50.78;;;15.93;;
43042;SDS011;28667;50.758;6.096;2022-12-01T13:39:38;54.65;;;17.92;;
43042;SDS011;28667;50.758;6.096;2022-12-01T13:42:18;43.42;;;15.13;;
43042;SDS011;28667;50.758;6.096;2022-12-01T13:49:54;43.53;;;13.82;;
43042;SDS011;28667;50.758;6.096;2022-12-01T13:57:27;39.22;;;13.18;;
43042;SDS011;28667;50.758;6.096;2022-12-01T14:02:25;43.40;;;12.38;;
43042;SDS011;28667;50.758;6.096;2022-12-01T14:04:52;39.10;;;12.48;;
43042;SDS011;28667;50.758;6.096;2022-12-01T14:09:44;37.58;;;13.57;;
43042;SDS011;28667;50.758;6.096;2022-12-01T14:12:16;36.17;;;13.38;;
43042;SDS011;28667;50.758;6.096;2022-12-01T14:14:51;42.83;;;12.20;;
43042;SDS011;28667;50.758;6.096;2022-12-01T14:22:43;36.67;;;13.57;;
43042;SDS011;28667;50.758;6.096;2022-12-01T14:25:22;32.97;;;12.15;;
43042;SDS011;28667;50.758;6.096;2022-12-01T14:27:52;31.77;;;12.13;;
43042;SDS011;28667;50.758;6.096;2022-12-01T14:39:16;24.17;;;11.18;;
43042;SDS011;28667;50.758;6.096;2022-12-01T14:41:54;31.13;;;11.77;;
43042;SDS011;28667;50.758;6.096;2022-12-01T14:49:49;33.75;;;11.68;;
43042;SDS011;28667;50.758;6.096;2022-12-01T14:52:49;27.83;;;9.77;;
43042;SDS011;28667;50.758;6.096;2022-12-01T14:55:20;24.98;;;10.18;;
43042;SDS011;28667;50.758;6.096;2022-12-01T14:57:57;27.15;;;10.10;;
43042;SDS011;28667;50.758;6.096;2022-12-01T15:00:30;29.20;;;10.43;;
43042;SDS011;28667;50.758;6.096;2022-12-01T15:03:02;30.08;;;10.40;;
43042;SDS011;28667;50.758;6.096;2022-12-01T15:05:41;23.73;;;9.98;;
43042;SDS011;28667;50.758;6.096;2022-12-01T15:10:53;26.73;;;9.57;;
43042;SDS011;28667;50.758;6.096;2022-12-01T15:13:22;29.15;;;11.20;;
43042;SDS011;28667;50.758;6.096;2022-12-01T15:16:18;26.55;;;11.13;;
43042;SDS011;28667;50.758;6.096;2022-12-01T15:18:46;30.08;;;10.15;;
43042;SDS011;28667;50.758;6.096;2022-12-01T15:21:17;23.58;;;10.32;;
43042;SDS011;28667;50.758;6.096;2022-12-01T15:26:17;30.27;;;12.55;;
43042;SDS011;28667;50.758;6.096;2022-12-01T15:28:44;30.02;;;10.65;;
43042;SDS011;28667;50.758;6.096;2022-12-01T15:31:11;24.05;;;11.30;;
43042;SDS011;28667;50.758;6.096;2022-12-01T15:33:40;30.45;;;11.38;;
43042;SDS011;28667;50.758;6.096;2022-12-01T15:36:11;27.23;;;11.50;;
43042;SDS011;28667;50.758;6.096;2022-12-01T15:38:39;32.17;;;11.73;;
43042;SDS011;28667;50.758;6.096;2022-12-01T15:41:06;30.67;;;12.00;;
43042;SDS011;28667;50.758;6.096;2022-12-01T15:43:43;28.23;;;10.02;;
43042;SDS011;28667;50.758;6.096;2022-12-01T15:46:19;32.80;;;12.93;;
43042;SDS011;28667;50.758;6.096;2022-12-01T15:51:51;28.30;;;10.88;;
43042;SDS011;28667;50.758;6.096;2022-12-01T15:54:22;35.88;;;11.85;;
43042;SDS011;28667;50.758;6.096;2022-12-01T15:56:50;29.67;;;11.77;;
43042;SDS011;28667;50.758;6.096;2022-12-01T16:07:37;29.25;;;10.82;;
43042;SDS011;28667;50.758;6.096;2022-12-01T16:10:03;38.28;;;13.48;;
43042;SDS011;28667;50.758;6.096;2022-12-01T16:12:30;40.40;;;13.45;;
43042;SDS011;28667;50.758;6.096;2022-12-01T16:20:15;39.53;;;13.77;;
43042;SDS011;28667;50.758;6.096;2022-12-01T16:22:58;38.47;;;11.90;;
43042;SDS011;28667;50.758;6.096;2022-12-01T16:28:52;29.98;;;11.95;;
43042;SDS011;28667;50.758;6.096;2022-12-01T16:30:59;43.17;;;13.35;;
43042;SDS011;28667;50.758;6.096;2022-12-01T16:33:29;33.70;;;12.48;;
43042;SDS011;28667;50.758;6.096;2022-12-01T16:36:00;32.63;;;12.18;;
43042;SDS011;28667;50.758;6.096;2022-12-01T16:38:27;39.13;;;12.63;;
43042;SDS011;28667;50.758;6.096;2022-12-01T16:40:55;31.70;;;10.70;;
43042;SDS011;28667;50.758;6.096;2022-12-01T16:43:23;34.28;;;12.15;;
43042;SDS011;28667;50.758;6.096;2022-12-01T16:45:50;42.72;;;14.52;;
43042;SDS011;28667;50.758;6.096;2022-12-01T16:48:22;40.22;;;14.50;;
43042;SDS011;28667;50.758;6.096;2022-12-01T16:50:49;35.88;;;12.73;;
43042;SDS011;28667;50.758;6.096;2022-12-01T16:53:18;41.00;;;13.25;;
43042;SDS011;28667;50.758;6.096;2022-12-01T16:55:54;38.70;;;14.82;;
43042;SDS011;28667;50.758;6.096;2022-12-01T16:58:21;37.83;;;14.80;;
43042;SDS011;28667;50.758;6.096;2022-12-01T17:00:47;39.83;;;13.38;;
43042;SDS011;28667;50.758;6.096;2022-12-01T17:03:16;42.97;;;14.45;;
43042;SDS011;28667;50.758;6.096;2022-12-01T17:05:44;35.55;;;14.95;;
43042;SDS011;28667;50.758;6.096;2022-12-01T17:08:12;47.97;;;14.90;;
43042;SDS011;28667;50.758;6.096;2022-12-01T17:10:38;42.75;;;13.90;;
43042;SDS011;28667;50.758;6.096;2022-12-01T17:13:06;40.28;;;14.98;;
43042;SDS011;28667;50.758;6.096;2022-12-01T17:15:32;41.63;;;15.00;;
43042;SDS011;28667;50.758;6.096;2022-12-01T17:17:57;42.95;;;15.90;;
43042;SDS011;28667;50.758;6.096;2022-12-01T17:20:23;41.53;;;15.52;;
43042;SDS011;28667;50.758;6.096;2022-12-01T17:22:50;43.40;;;16.23;;
43042;SDS011;28667;50.758;6.096;2022-12-01T17:25:15;48.45;;;16.20;;
43042;SDS011;28667;50.758;6.096;2022-12-01T17:27:41;44.40;;;15.48;;
43042;SDS011;28667;50.758;6.096;2022-12-01T17:30:08;48.08;;;16.45;;